Time;durP1;ratioP1;P1;durP2;ratioP2;P2;SDS_P1;SDS_P2;PMS_P1;PMS_P2;Temp;Humidity;BMP_temperature;BMP_pressure;BME280_temperature;BME280_humidity;BME280_pressure;Samples;Min_cycle;Max_cycle;Signal;HPM_P1;HPM_P2
2022/04/24 00:01:58;;;;;;;12.18;9.85;;;12.80;59.80;;;;;;5124959;27;20027;-59
2022/04/24 00:04:24;;;;;;;13.07;10.23;;;12.80;59.80;;;;;;5128979;27;20133;-59
2022/04/24 00:06:52;;;;;;;13.65;10.00;;;12.70;60.00;;;;;;5111060;27;20028;-58
2022/04/24 00:09:18;;;;;;;12.77;9.98;;;12.70;59.90;;;;;;5123028;27;20057;-57
2022/04/24 00:11:43;;;;;;;15.70;10.07;;;12.70;60.00;;;;;;5122245;27;20031;-60
2022/04/24 00:14:10;;;;;;;13.25;10.18;;;12.70;60.10;;;;;;5120788;27;20035;-59
2022/04/24 00:16:39;;;;;;;15.18;11.05;;;12.70;60.20;;;;;;5124350;27;20017;-58
2022/04/24 00:19:06;;;;;;;14.32;10.60;;;12.70;60.80;;;;;;5126325;27;20019;-59
2022/04/24 00:21:32;;;;;;;15.75;11.38;;;12.70;60.70;;;;;;5119514;27;20019;-57
2022/04/24 00:23:58;;;;;;;14.60;11.07;;;12.70;60.70;;;;;;5118639;27;20101;-59
2022/04/24 00:26:24;;;;;;;14.90;10.38;;;12.60;61.20;;;;;;5127826;27;20629;-59
2022/04/24 00:28:50;;;;;;;14.80;10.38;;;12.60;60.60;;;;;;5119182;27;20032;-58
2022/04/24 00:31:16;;;;;;;15.55;10.55;;;12.60;60.70;;;;;;5118585;27;20036;-58
2022/04/24 00:33:41;;;;;;;16.42;12.35;;;12.60;60.90;;;;;;5128446;27;20508;-57
2022/04/24 00:36:07;;;;;;;15.55;11.60;;;12.60;61.40;;;;;;5124871;27;20023;-59
2022/04/24 00:38:34;;;;;;;18.05;12.80;;;12.70;61.20;;;;;;5120696;27;20054;-59
2022/04/24 00:40:59;;;;;;;18.88;11.75;;;12.70;61.60;;;;;;5123654;27;20028;-57
2022/04/24 00:43:25;;;;;;;16.20;11.63;;;12.70;61.10;;;;;;5124275;27;20024;-58
2022/04/24 00:46:00;;;;;;;18.08;13.27;;;12.70;61.30;;;;;;5115998;27;20017;-58
2022/04/24 00:48:26;;;;;;;18.50;12.80;;;12.70;61.80;;;;;;5123047;27;20076;-59
2022/04/24 00:50:52;;;;;;;19.20;12.60;;;12.70;61.80;;;;;;5117682;27;20080;-59
2022/04/24 00:53:17;;;;;;;15.95;12.20;;;12.70;61.70;;;;;;5125463;27;20024;-59
2022/04/24 00:55:44;;;;;;;16.55;12.15;;;12.70;61.40;;;;;;5125480;27;20106;-59
2022/04/24 00:58:10;;;;;;;16.77;12.13;;;12.70;61.40;;;;;;5129362;27;20084;-59
2022/04/24 01:00:38;;;;;;;17.35;13.07;;;12.70;61.30;;;;;;5125189;27;20019;-59
2022/04/24 01:03:04;;;;;;;16.08;11.93;;;12.70;61.30;;;;;;5115856;27;20118;-59
2022/04/24 01:05:29;;;;;;;15.77;12.85;;;12.70;61.30;;;;;;5127008;27;20027;-58
2022/04/24 01:07:55;;;;;;;18.10;13.45;;;12.70;61.40;;;;;;5114656;27;20034;-59
2022/04/24 01:10:21;;;;;;;19.63;13.23;;;12.70;61.50;;;;;;5123133;27;20122;-58
2022/04/24 01:12:46;;;;;;;18.52;13.02;;;12.70;62.30;;;;;;5123053;27;20086;-58
2022/04/24 01:15:13;;;;;;;18.00;13.02;;;12.70;61.60;;;;;;5128540;27;20062;-59
2022/04/24 01:17:39;;;;;;;20.73;14.68;;;12.80;61.70;;;;;;5123090;27;20027;-59
2022/04/24 01:20:06;;;;;;;20.02;13.90;;;12.80;62.00;;;;;;5122992;27;20027;-59
2022/04/24 01:22:31;;;;;;;19.38;12.52;;;12.70;61.70;;;;;;5118705;27;20024;-59
2022/04/24 01:24:57;;;;;;;14.43;11.93;;;12.70;61.60;;;;;;5120893;27;20034;-58
2022/04/24 01:27:23;;;;;;;17.13;12.50;;;12.70;61.40;;;;;;5130945;27;20106;-59
2022/04/24 01:29:48;;;;;;;19.63;14.40;;;12.70;61.50;;;;;;5128000;27;20121;-59
2022/04/24 01:32:14;;;;;;;16.80;13.13;;;12.70;61.70;;;;;;5123456;27;20606;-59
2022/04/24 01:34:39;;;;;;;17.08;12.65;;;12.70;61.70;;;;;;5122998;27;20028;-59
2022/04/24 01:37:05;;;;;;;18.45;12.48;;;12.70;61.70;;;;;;5130686;27;20394;-58
2022/04/24 01:39:31;;;;;;;17.10;11.75;;;12.70;61.90;;;;;;5119786;27;20035;-59
2022/04/24 01:41:56;;;;;;;17.77;13.10;;;12.70;61.80;;;;;;5117744;27;20038;-58
2022/04/24 01:44:22;;;;;;;16.25;12.43;;;12.70;61.80;;;;;;5116111;27;20028;-59
2022/04/24 01:46:47;;;;;;;15.93;12.80;;;12.70;61.70;;;;;;5126558;27;20082;-58
2022/04/24 01:49:13;;;;;;;16.95;12.70;;;12.70;61.70;;;;;;5120392;27;20850;-58
2022/04/24 01:51:39;;;;;;;17.02;12.30;;;12.70;61.70;;;;;;5143268;27;20405;-58
2022/04/24 01:54:04;;;;;;;15.70;12.02;;;12.70;61.80;;;;;;5112048;27;20505;-58
2022/04/24 01:56:30;;;;;;;22.05;12.50;;;12.70;61.70;;;;;;5120643;27;20066;-58
2022/04/24 01:58:56;;;;;;;17.60;12.35;;;12.80;61.70;;;;;;5116225;27;20032;-59
2022/04/24 02:01:21;;;;;;;18.40;12.82;;;12.70;61.70;;;;;;5119736;27;20026;-59
2022/04/24 02:03:47;;;;;;;14.88;11.35;;;12.70;61.70;;;;;;5123206;27;20531;-59
2022/04/24 02:06:13;;;;;;;15.55;11.48;;;12.80;61.70;;;;;;5106882;27;20473;-59
2022/04/24 02:08:39;;;;;;;15.40;12.45;;;12.80;61.70;;;;;;5129411;27;20482;-59
2022/04/24 02:11:06;;;;;;;15.07;11.77;;;12.80;61.90;;;;;;5116823;27;20092;-58
2022/04/24 02:13:33;;;;;;;16.42;12.50;;;12.80;61.90;;;;;;5119727;27;20547;-58
2022/04/24 02:15:58;;;;;;;20.25;13.00;;;12.80;61.80;;;;;;5121078;27;20020;-59
2022/04/24 02:18:24;;;;;;;19.15;13.88;;;12.80;61.80;;;;;;5124399;27;20023;-58
2022/04/24 02:20:49;;;;;;;22.15;13.93;;;12.80;61.90;;;;;;5124482;27;20031;-58
2022/04/24 02:23:16;;;;;;;18.20;13.38;;;12.80;62.00;;;;;;5121255;27;20035;-59
2022/04/24 02:25:41;;;;;;;17.27;12.45;;;12.80;61.90;;;;;;5110591;27;20034;-58
2022/04/24 02:28:07;;;;;;;18.40;12.85;;;12.80;61.90;;;;;;5123702;27;20023;-59
2022/04/24 02:30:35;;;;;;;17.80;13.55;;;12.80;62.00;;;;;;5120182;27;20032;-59
2022/04/24 02:33:01;;;;;;;18.75;13.48;;;12.90;62.10;;;;;;5114011;27;20115;-57
2022/04/24 02:35:28;;;;;;;18.17;13.98;;;12.90;62.10;;;;;;5117278;27;20359;-58
2022/04/24 02:37:53;;;;;;;19.27;13.93;;;12.90;62.10;;;;;;5114711;27;20031;-59
2022/04/24 02:40:22;;;;;;;17.55;13.27;;;12.90;62.10;;;;;;5117136;27;20038;-59
2022/04/24 02:42:50;;;;;;;20.20;14.05;;;12.90;62.10;;;;;;5122271;27;20035;-57
2022/04/24 02:45:16;;;;;;;23.70;14.93;;;12.90;62.30;;;;;;5128853;27;20015;-59
2022/04/24 02:47:42;;;;;;;21.88;15.30;;;12.90;62.30;;;;;;5120210;27;20026;-58
2022/04/24 02:50:08;;;;;;;21.95;15.90;;;12.90;62.30;;;;;;5121292;27;20440;-59
2022/04/24 02:52:47;;;;;;;23.80;16.35;;;12.90;62.40;;;;;;5124760;27;20028;-59
2022/04/24 02:55:14;;;;;;;21.23;15.75;;;12.80;63.00;;;;;;5117944;27;20011;-59
2022/04/24 02:57:40;;;;;;;24.75;16.50;;;12.90;62.40;;;;;;5118930;27;20020;-58
2022/04/24 03:00:07;;;;;;;20.40;15.38;;;12.90;62.30;;;;;;5118456;27;20023;-59
2022/04/24 03:02:39;;;;;;;22.73;15.32;;;12.80;62.10;;;;;;5118696;27;20011;-59
2022/04/24 03:05:05;;;;;;;24.13;16.73;;;12.80;62.80;;;;;;5113269;27;20027;-57
2022/04/24 03:07:30;;;;;;;21.10;15.80;;;12.80;62.60;;;;;;5128718;27;20063;-59
2022/04/24 03:09:56;;;;;;;21.80;15.35;;;12.80;62.50;;;;;;5118932;28;20024;-57
2022/04/24 03:12:21;;;;;;;21.70;16.13;;;12.70;62.80;;;;;;5140997;27;20040;-59
2022/04/24 03:14:47;;;;;;;21.55;16.08;;;12.70;62.90;;;;;;5116656;27;20028;-58
2022/04/24 03:17:12;;;;;;;21.45;16.30;;;12.70;63.10;;;;;;5124899;27;20031;-57
2022/04/24 03:19:38;;;;;;;22.17;16.58;;;12.70;63.30;;;;;;5126492;27;20031;-59
2022/04/24 03:22:04;;;;;;;21.90;16.08;;;12.70;63.30;;;;;;5122153;27;20093;-59
2022/04/24 03:24:30;;;;;;;20.25;15.60;;;12.70;63.70;;;;;;5120405;28;20427;-56
2022/04/24 03:26:55;;;;;;;21.50;16.52;;;12.70;63.70;;;;;;5052482;28;20052;-57
2022/04/24 03:29:21;;;;;;;22.13;16.58;;;12.70;63.90;;;;;;5119021;28;20027;-59
2022/04/24 03:31:46;;;;;;;23.00;16.58;;;12.70;64.00;;;;;;5121778;27;20039;-57
2022/04/24 03:34:12;;;;;;;22.75;16.55;;;12.60;64.00;;;;;;5132153;27;20514;-57
2022/04/24 03:36:38;;;;;;;25.25;16.55;;;12.70;64.10;;;;;;5115059;27;20038;-57
2022/04/24 03:39:03;;;;;;;20.98;15.80;;;12.70;64.20;;;;;;5115269;27;20084;-57
2022/04/24 03:41:29;;;;;;;22.23;16.20;;;12.70;64.30;;;;;;5115879;27;20028;-57
2022/04/24 03:43:54;;;;;;;22.33;16.13;;;12.70;64.50;;;;;;5127747;27;20016;-57
2022/04/24 03:46:20;;;;;;;21.70;15.73;;;12.70;64.50;;;;;;5121492;27;20020;-59
2022/04/24 03:48:46;;;;;;;22.15;15.80;;;12.70;64.50;;;;;;5124544;27;20048;-57
2022/04/24 03:51:11;;;;;;;21.88;16.08;;;12.70;64.70;;;;;;5124975;27;20038;-56
2022/04/24 03:53:37;;;;;;;20.23;15.15;;;12.70;64.70;;;;;;5121662;27;20058;-58
2022/04/24 03:56:03;;;;;;;19.17;15.13;;;12.70;64.60;;;;;;5135620;27;20060;-58
2022/04/24 03:58:28;;;;;;;26.52;15.38;;;12.70;64.60;;;;;;5122793;27;20062;-58
2022/04/24 04:00:55;;;;;;;21.02;15.43;;;12.70;64.70;;;;;;5132763;27;20042;-58
2022/04/24 04:03:20;;;;;;;22.15;15.73;;;12.70;64.90;;;;;;5114444;27;20031;-58
2022/04/24 04:05:46;;;;;;;25.00;18.65;;;12.70;65.10;;;;;;5123613;27;20084;-56
2022/04/24 04:08:12;;;;;;;22.65;15.75;;;12.70;65.30;;;;;;5128528;27;20020;-57
2022/04/24 04:10:37;;;;;;;21.55;15.40;;;12.70;65.10;;;;;;5122598;27;20030;-57
2022/04/24 04:13:07;;;;;;;21.00;15.57;;;12.70;65.10;;;;;;5115412;27;20027;-58
2022/04/24 04:15:32;;;;;;;21.73;14.95;;;12.70;64.90;;;;;;5131018;27;20025;-57
2022/04/24 04:17:58;;;;;;;19.77;15.13;;;12.70;64.90;;;;;;5125763;27;20106;-57
2022/04/24 04:20:24;;;;;;;22.70;16.55;;;12.70;64.80;;;;;;5117348;27;20032;-58
2022/04/24 04:22:51;;;;;;;19.52;14.25;;;12.70;65.10;;;;;;5121062;27;20032;-57
2022/04/24 04:25:21;;;;;;;23.13;14.93;;;12.60;65.30;;;;;;5120999;27;20147;-58
2022/04/24 04:27:47;;;;;;;20.83;15.00;;;12.60;65.70;;;;;;5123137;27;20075;-58
2022/04/24 04:30:13;;;;;;;22.40;15.82;;;12.60;65.40;;;;;;5125028;27;20057;-59
2022/04/24 04:32:39;;;;;;;22.70;15.25;;;12.50;65.30;;;;;;5116806;27;20035;-57
2022/04/24 04:35:05;;;;;;;22.95;15.57;;;12.50;65.50;;;;;;5125473;27;20025;-57
2022/04/24 04:37:32;;;;;;;21.48;16.02;;;12.50;66.60;;;;;;5125601;27;20028;-59
2022/04/24 04:39:58;;;;;;;21.08;15.32;;;12.40;65.90;;;;;;5120149;27;20020;-59
2022/04/24 04:42:24;;;;;;;21.88;15.27;;;12.40;66.00;;;;;;5124090;27;20019;-58
2022/04/24 04:44:49;;;;;;;21.10;14.57;;;12.40;66.20;;;;;;5122282;27;20091;-59
2022/04/24 04:47:15;;;;;;;23.95;16.30;;;12.40;66.00;;;;;;5125751;27;20024;-57
2022/04/24 04:49:40;;;;;;;20.42;14.80;;;12.30;65.90;;;;;;5121449;27;20055;-58
2022/04/24 04:52:06;;;;;;;23.23;16.08;;;12.30;66.10;;;;;;5119420;27;20065;-57
2022/04/24 04:54:32;;;;;;;21.83;14.95;;;12.30;66.00;;;;;;5135403;27;20031;-58
2022/04/24 04:56:58;;;;;;;20.23;15.23;;;12.30;66.40;;;;;;5120756;27;20109;-57
2022/04/24 04:59:23;;;;;;;19.88;14.82;;;12.30;66.70;;;;;;5120427;27;20028;-58
2022/04/24 05:01:49;;;;;;;18.40;14.13;;;12.20;66.40;;;;;;5125252;27;20035;-57
2022/04/24 05:04:14;;;;;;;20.52;14.30;;;12.20;66.40;;;;;;5125200;27;20080;-59
2022/04/24 05:06:40;;;;;;;20.20;14.13;;;12.20;67.70;;;;;;5118528;27;20040;-57
2022/04/24 05:09:06;;;;;;;18.85;14.02;;;12.20;66.90;;;;;;5117836;27;20051;-57
2022/04/24 05:11:31;;;;;;;15.60;12.25;;;12.10;66.90;;;;;;5129177;27;20074;-57
2022/04/24 05:13:57;;;;;;;14.75;11.05;;;12.20;66.70;;;;;;5132197;27;20093;-57
2022/04/24 05:16:23;;;;;;;14.63;10.23;;;12.10;66.50;;;;;;5127265;27;20028;-57
2022/04/24 05:18:49;;;;;;;11.73;9.02;;;12.20;66.80;;;;;;5116950;27;20023;-57
2022/04/24 05:21:16;;;;;;;8.93;6.28;;;12.10;66.30;;;;;;5117926;28;20027;-57
2022/04/24 05:23:45;;;;;;;7.97;5.53;;;12.10;66.00;;;;;;5127890;27;20026;-58
2022/04/24 05:26:14;;;;;;;6.63;4.43;;;12.10;66.50;;;;;;5120886;27;20020;-58
2022/04/24 05:28:40;;;;;;;5.28;4.10;;;12.00;65.80;;;;;;5132627;27;20757;-57
2022/04/24 05:31:06;;;;;;;4.82;3.28;;;12.00;65.70;;;;;;5123549;27;20042;-57
2022/04/24 05:33:32;;;;;;;3.42;2.70;;;11.90;65.40;;;;;;5122718;27;20031;-59
2022/04/24 05:35:58;;;;;;;4.20;2.28;;;11.90;65.70;;;;;;5122712;27;20046;-57
2022/04/24 05:38:23;;;;;;;2.20;1.73;;;11.80;65.60;;;;;;5118552;27;20095;-57
2022/04/24 05:40:49;;;;;;;4.60;1.60;;;11.70;65.70;;;;;;5122434;27;20109;-57
2022/04/24 05:43:15;;;;;;;2.22;1.17;;;11.70;65.40;;;;;;5129572;27;20026;-58
2022/04/24 05:45:41;;;;;;;2.35;1.20;;;11.70;65.30;;;;;;5117873;27;20374;-57
2022/04/24 05:48:07;;;;;;;1.75;1.02;;;11.60;65.40;;;;;;5112358;27;20200;-57
2022/04/24 05:50:33;;;;;;;1.38;1.00;;;11.50;65.30;;;;;;5115556;28;20027;-57
2022/04/24 05:52:59;;;;;;;2.08;1.63;;;11.50;65.80;;;;;;5130777;27;20024;-58
2022/04/24 05:55:25;;;;;;;1.75;1.40;;;11.40;65.40;;;;;;5128877;27;20031;-58
2022/04/24 05:57:52;;;;;;;2.72;1.05;;;11.40;65.50;;;;;;5116622;27;20462;-58
2022/04/24 06:00:18;;;;;;;1.17;0.90;;;11.40;66.00;;;;;;5121283;27;20533;-57
2022/04/24 06:02:44;;;;;;;2.30;1.00;;;11.40;66.20;;;;;;5124814;27;20069;-58
2022/04/24 06:05:12;;;;;;;3.45;1.20;;;11.30;66.40;;;;;;5123327;27;20023;-58
2022/04/24 06:07:39;;;;;;;2.60;1.20;;;11.30;66.10;;;;;;5124856;27;20024;-57
2022/04/24 06:10:06;;;;;;;2.47;1.48;;;11.20;66.70;;;;;;5126853;27;20007;-57
2022/04/24 06:12:32;;;;;;;1.55;1.20;;;11.20;66.90;;;;;;5120064;27;20126;-58
2022/04/24 06:15:03;;;;;;;1.77;1.23;;;11.20;66.40;;;;;;5119512;27;20032;-57
2022/04/24 06:17:29;;;;;;;2.22;1.00;;;11.10;66.30;;;;;;5120045;27;20440;-57
2022/04/24 06:19:54;;;;;;;1.17;0.90;;;11.10;66.10;;;;;;5130707;27;20053;-57
2022/04/24 06:22:20;;;;;;;1.73;1.10;;;11.10;66.20;;;;;;5117135;27;20046;-58
2022/04/24 06:24:50;;;;;;;1.27;1.00;;;11.10;66.20;;;;;;5091302;27;20019;-56
2022/04/24 06:27:16;;;;;;;1.08;0.80;;;11.10;66.20;;;;;;5118424;27;20054;-57
2022/04/24 06:29:41;;;;;;;0.77;0.77;;;11.10;66.10;;;;;;5105984;27;20036;-58
2022/04/24 06:32:08;;;;;;;1.73;0.82;;;11.10;66.10;;;;;;5115356;27;20027;-59
2022/04/24 06:34:34;;;;;;;2.40;0.88;;;11.10;66.00;;;;;;5123263;27;20027;-58
2022/04/24 06:37:00;;;;;;;0.90;0.80;;;11.10;66.10;;;;;;5123921;27;20024;-58
2022/04/24 06:39:25;;;;;;;1.10;1.00;;;11.10;66.10;;;;;;5115004;27;20049;-59
2022/04/24 06:41:51;;;;;;;3.03;0.88;;;11.10;66.90;;;;;;5128893;27;20065;-58
2022/04/24 06:44:17;;;;;;;1.05;0.75;;;11.10;66.50;;;;;;5113111;27;20020;-58
2022/04/24 06:46:43;;;;;;;2.42;0.90;;;11.10;66.80;;;;;;5121288;27;20042;-58
2022/04/24 06:49:09;;;;;;;0.70;0.70;;;11.10;66.70;;;;;;5122897;27;20069;-58
2022/04/24 06:51:35;;;;;;;4.43;0.80;;;11.20;66.80;;;;;;5114580;28;20051;-59
2022/04/24 06:54:01;;;;;;;1.00;0.70;;;11.20;66.70;;;;;;5114660;28;20028;-58
2022/04/24 06:56:26;;;;;;;2.45;1.20;;;11.10;66.70;;;;;;5118010;27;20083;-58
2022/04/24 06:58:53;;;;;;;0.77;0.60;;;11.20;66.80;;;;;;5115316;27;20538;-58
2022/04/24 07:01:22;;;;;;;3.67;0.70;;;11.20;66.80;;;;;;5115700;27;20043;-56
2022/04/24 07:03:49;;;;;;;1.05;0.57;;;11.20;66.80;;;;;;5124507;27;20027;-59
2022/04/24 07:06:15;;;;;;;2.00;0.50;;;11.30;66.80;;;;;;5114567;28;20036;-59
2022/04/24 07:08:40;;;;;;;1.00;0.50;;;11.30;66.70;;;;;;5113422;28;20031;-58
2022/04/24 07:11:07;;;;;;;0.40;0.40;;;11.20;66.30;;;;;;5120696;27;20096;-59
2022/04/24 07:13:33;;;;;;;0.50;0.40;;;11.20;66.70;;;;;;5118400;28;20378;-60
2022/04/24 07:15:58;;;;;;;0.40;0.40;;;11.10;66.60;;;;;;5116595;27;20024;-59
2022/04/24 07:18:25;;;;;;;0.88;0.40;;;11.10;66.80;;;;;;5120719;27;20103;-59
2022/04/24 07:20:53;;;;;;;1.77;0.60;;;11.10;66.90;;;;;;5118932;28;20084;-59
2022/04/24 07:23:18;;;;;;;0.43;0.43;;;11.10;67.00;;;;;;5126209;28;20047;-59
2022/04/24 07:25:44;;;;;;;0.52;0.40;;;11.10;67.00;;;;;;5128339;27;20493;-60
2022/04/24 07:28:15;;;;;;;1.90;1.00;;;11.10;67.00;;;;;;5124052;28;20030;-59
2022/04/24 07:30:41;;;;;;;4.53;1.13;;;11.10;67.20;;;;;;5118604;28;20026;-59
2022/04/24 07:33:07;;;;;;;0.90;0.50;;;11.10;67.00;;;;;;5121292;28;20031;-59
2022/04/24 07:35:35;;;;;;;0.40;0.40;;;11.10;67.00;;;;;;5114523;28;20023;-58
2022/04/24 07:38:02;;;;;;;1.90;0.90;;;11.10;67.20;;;;;;5114823;28;20030;-59
2022/04/24 07:40:29;;;;;;;1.88;0.70;;;11.10;67.00;;;;;;5123441;28;20070;-60
2022/04/24 07:42:56;;;;;;;0.40;0.40;;;11.10;67.00;;;;;;5116929;28;20039;-59
2022/04/24 07:45:22;;;;;;;1.13;0.50;;;11.10;67.50;;;;;;5113881;28;20028;-58
2022/04/24 07:47:49;;;;;;;0.43;0.43;;;11.10;67.40;;;;;;5126021;28;20043;-59
2022/04/24 07:50:16;;;;;;;0.40;0.40;;;11.10;67.20;;;;;;5114723;28;20135;-58
2022/04/24 07:52:42;;;;;;;16.25;10.55;;;11.10;66.90;;;;;;5114765;28;20416;-59
2022/04/24 07:55:11;;;;;;;2.47;1.73;;;11.10;67.00;;;;;;5116803;28;20131;-58
2022/04/24 07:57:38;;;;;;;4.25;3.28;;;11.10;67.40;;;;;;5117431;28;20016;-59
2022/04/24 08:00:04;;;;;;;0.93;0.70;;;11.20;67.70;;;;;;5117469;28;20047;-59
2022/04/24 08:02:29;;;;;;;0.88;0.55;;;11.20;67.70;;;;;;5117586;28;20027;-58
2022/04/24 08:04:55;;;;;;;0.85;0.60;;;11.20;67.40;;;;;;5119974;28;20040;-60
2022/04/24 08:07:22;;;;;;;0.60;0.40;;;11.20;67.50;;;;;;5121300;28;20039;-60
2022/04/24 08:09:51;;;;;;;0.88;0.40;;;11.30;67.70;;;;;;5110416;28;20189;-58
2022/04/24 08:12:16;;;;;;;0.68;0.55;;;11.30;67.70;;;;;;5121701;28;20067;-59
2022/04/24 08:14:42;;;;;;;1.25;0.77;;;11.30;67.70;;;;;;5115445;28;20031;-59
2022/04/24 08:17:08;;;;;;;0.75;0.50;;;11.40;67.90;;;;;;5119786;27;20035;-58
2022/04/24 08:19:33;;;;;;;0.30;0.30;;;11.50;67.90;;;;;;5120498;27;20027;-58
2022/04/24 08:21:59;;;;;;;0.50;0.40;;;11.50;67.60;;;;;;5120652;27;20027;-58
2022/04/24 08:24:25;;;;;;;0.85;0.50;;;11.50;67.10;;;;;;5126033;27;20023;-60
2022/04/24 08:26:50;;;;;;;0.80;0.40;;;11.50;67.10;;;;;;5118133;27;20035;-59
2022/04/24 08:29:16;;;;;;;0.40;0.40;;;11.50;66.90;;;;;;5124630;27;20024;-58
2022/04/24 08:31:42;;;;;;;0.63;0.40;;;11.60;67.20;;;;;;5123620;27;20306;-59
2022/04/24 08:34:07;;;;;;;0.50;0.50;;;11.60;67.10;;;;;;5120977;27;20038;-58
2022/04/24 08:36:33;;;;;;;1.10;0.40;;;11.60;67.30;;;;;;5118361;27;20043;-60
2022/04/24 08:38:59;;;;;;;0.50;0.43;;;11.60;66.70;;;;;;5114504;27;20019;-59
2022/04/24 08:41:29;;;;;;;0.85;0.45;;;11.60;66.80;;;;;;5118184;27;20031;-59
2022/04/24 08:43:55;;;;;;;1.35;0.60;;;11.60;66.50;;;;;;5114635;27;20032;-59
2022/04/24 08:46:23;;;;;;;1.20;0.80;;;11.70;66.30;;;;;;5126462;27;20023;-60
2022/04/24 08:48:49;;;;;;;0.88;0.43;;;11.60;66.40;;;;;;5116403;27;20059;-59
2022/04/24 08:51:17;;;;;;;1.75;0.50;;;11.60;66.40;;;;;;5116917;27;20032;-60
2022/04/24 08:53:43;;;;;;;0.95;0.50;;;11.70;66.70;;;;;;5118826;27;20046;-61
2022/04/24 08:56:09;;;;;;;0.40;0.40;;;11.70;66.70;;;;;;5120546;27;20015;-59
2022/04/24 08:58:34;;;;;;;0.40;0.40;;;11.70;66.40;;;;;;5118757;28;20043;-59
2022/04/24 09:01:00;;;;;;;0.95;0.40;;;11.70;66.10;;;;;;5116937;27;20028;-59
2022/04/24 09:03:26;;;;;;;0.60;0.40;;;11.80;66.40;;;;;;5119074;27;20432;-60
2022/04/24 09:05:51;;;;;;;0.47;0.38;;;11.80;66.50;;;;;;5120929;27;20043;-59
2022/04/24 09:08:24;;;;;;;0.68;0.40;;;11.80;66.70;;;;;;5125862;27;20150;-61
2022/04/24 09:10:54;;;;;;;0.38;0.38;;;11.90;66.70;;;;;;5125992;27;20031;-59
2022/04/24 09:14:14;;;;;;;0.28;0.28;;;11.90;66.60;;;;;;5111070;27;20039;-60
2022/04/24 09:16:49;;;;;;;0.40;0.40;;;12.10;66.90;;;;;;5119912;27;20099;-60
2022/04/24 09:19:16;;;;;;;0.70;0.45;;;12.20;67.60;;;;;;5114552;27;20119;-60
2022/04/24 09:21:41;;;;;;;0.40;0.40;;;12.30;66.70;;;;;;5123849;27;20047;-59
2022/04/24 09:24:07;;;;;;;0.90;0.57;;;12.30;66.20;;;;;;5121708;27;20829;-61
2022/04/24 09:26:33;;;;;;;0.60;0.60;;;12.40;66.30;;;;;;5122635;27;20030;-59
2022/04/24 09:28:59;;;;;;;0.90;0.60;;;12.40;66.30;;;;;;5120745;27;20042;-60
2022/04/24 09:31:30;;;;;;;0.60;0.50;;;12.50;66.30;;;;;;5121355;27;20039;-60
2022/04/24 09:33:56;;;;;;;1.10;0.45;;;12.50;66.10;;;;;;5124263;27;20034;-60
2022/04/24 09:36:25;;;;;;;0.40;0.40;;;12.50;65.90;;;;;;5124000;27;20020;-60
2022/04/24 09:38:51;;;;;;;0.63;0.40;;;12.50;65.80;;;;;;5126303;27;20031;-59
2022/04/24 09:41:21;;;;;;;0.30;0.30;;;12.50;65.90;;;;;;5125299;27;20031;-59
2022/04/24 09:43:47;;;;;;;1.80;0.40;;;12.50;65.90;;;;;;5119634;27;20027;-60
2022/04/24 09:46:12;;;;;;;0.52;0.50;;;12.50;65.70;;;;;;5121388;27;20039;-60
2022/04/24 09:48:38;;;;;;;2.30;0.40;;;12.50;65.80;;;;;;5117972;27;20047;-59
2022/04/24 09:51:04;;;;;;;0.77;0.38;;;12.50;65.80;;;;;;5118704;27;20052;-60
2022/04/24 09:53:32;;;;;;;2.60;0.30;;;12.50;65.90;;;;;;5121783;27;20041;-60
2022/04/24 09:55:59;;;;;;;0.45;0.32;;;12.50;65.80;;;;;;5119998;27;20039;-61
2022/04/24 09:58:25;;;;;;;0.60;0.60;;;12.50;65.90;;;;;;5123810;27;20035;-59
2022/04/24 10:00:52;;;;;;;1.42;0.70;;;12.50;66.10;;;;;;5119221;27;20031;-59
2022/04/24 10:03:19;;;;;;;0.30;0.30;;;12.50;66.40;;;;;;5117192;27;20027;-61
2022/04/24 10:05:47;;;;;;;0.40;0.40;;;12.60;66.20;;;;;;5116851;27;20031;-60
2022/04/24 10:08:17;;;;;;;0.40;0.40;;;12.60;66.20;;;;;;5112566;27;20094;-60
2022/04/24 10:10:43;;;;;;;0.90;0.50;;;12.60;66.60;;;;;;5114519;27;20031;-59
2022/04/24 10:13:11;;;;;;;0.70;0.60;;;12.70;66.40;;;;;;5130726;27;20027;-60
2022/04/24 10:16:00;;;;;;;8.95;4.78;;;12.70;66.70;;;;;;5114621;27;20028;-59
2022/04/24 10:19:04;;;;;;;8.80;4.20;;;12.70;66.50;;;;;;5115905;27;20136;-60
2022/04/24 10:21:37;;;;;;;1.33;0.88;;;12.80;66.70;;;;;;5119024;27;20046;-60
2022/04/24 10:24:10;;;;;;;4.72;1.00;;;12.80;66.20;;;;;;5119293;27;20032;-59
2022/04/24 10:26:37;;;;;;;1.93;0.97;;;12.90;66.90;;;;;;5123781;27;20041;-60
2022/04/24 10:29:08;;;;;;;0.70;0.60;;;12.90;65.90;;;;;;5116994;27;20043;-59
2022/04/24 10:31:45;;;;;;;0.50;0.50;;;12.90;66.40;;;;;;5125490;27;20126;-60
2022/04/24 10:34:13;;;;;;;6.20;2.40;;;13.00;65.70;;;;;;5113374;28;20510;-59
2022/04/24 10:36:52;;;;;;;10.38;3.97;;;13.00;65.70;;;;;;5120405;27;20020;-60
2022/04/24 10:39:21;;;;;;;3.10;1.67;;;13.10;65.60;;;;;;5123150;27;20083;-60
2022/04/24 10:41:58;;;;;;;4.40;1.70;;;13.10;65.20;;;;;;5121060;27;20027;-60
2022/04/24 10:44:24;;;;;;;1.25;0.68;;;13.10;65.70;;;;;;5132174;27;20113;-61
2022/04/24 10:46:51;;;;;;;8.77;4.07;;;13.10;65.50;;;;;;5121114;27;20016;-61
2022/04/24 10:49:18;;;;;;;2.55;1.58;;;13.20;65.70;;;;;;5124850;27;20047;-59
2022/04/24 10:51:56;;;;;;;2.25;1.27;;;13.20;65.80;;;;;;5113323;27;20055;-59
2022/04/24 10:54:31;;;;;;;1.27;0.50;;;13.30;66.00;;;;;;5126501;27;20100;-61
2022/04/24 10:56:58;;;;;;;0.40;0.40;;;13.30;65.70;;;;;;5121901;27;20118;-60
2022/04/24 10:59:23;;;;;;;0.73;0.40;;;13.40;66.00;;;;;;5121027;27;20012;-59
2022/04/24 11:01:54;;;;;;;1.73;1.38;;;13.50;65.50;;;;;;5122556;27;20031;-59
2022/04/24 11:04:21;;;;;;;4.00;1.10;;;13.60;64.80;;;;;;5119594;27;20031;-60
2022/04/24 11:06:58;;;;;;;0.60;0.60;;;13.60;64.80;;;;;;5113999;27;20469;-59
2022/04/24 11:09:29;;;;;;;0.68;0.68;;;13.60;64.40;;;;;;5122218;28;20038;-58
2022/04/24 11:12:06;;;;;;;0.75;0.30;;;13.60;64.30;;;;;;5117571;27;20104;-59
2022/04/24 11:14:32;;;;;;;0.55;0.43;;;13.60;63.90;;;;;;5112556;28;20074;-59
2022/04/24 11:17:04;;;;;;;0.50;0.40;;;13.60;63.70;;;;;;5118685;28;20508;-60
2022/04/24 11:19:31;;;;;;;0.65;0.60;;;13.50;63.50;;;;;;5120617;27;20016;-59
2022/04/24 11:22:10;;;;;;;1.00;0.50;;;13.40;63.70;;;;;;5115877;27;20032;-59
2022/04/24 11:24:38;;;;;;;0.32;0.32;;;13.40;64.20;;;;;;5115096;28;20032;-58
2022/04/24 11:27:07;;;;;;;2.13;0.70;;;13.40;64.00;;;;;;5116903;28;20033;-59
2022/04/24 11:29:33;;;;;;;0.52;0.52;;;13.40;63.90;;;;;;5120779;28;20046;-58
2022/04/24 11:32:00;;;;;;;1.67;0.90;;;13.40;64.10;;;;;;5127638;28;20035;-59
2022/04/24 11:34:26;;;;;;;1.65;0.65;;;13.30;63.80;;;;;;5119011;28;20030;-58
2022/04/24 11:36:59;;;;;;;2.70;0.90;;;13.40;63.90;;;;;;5113645;28;20031;-59
2022/04/24 11:39:25;;;;;;;1.20;0.60;;;13.40;64.00;;;;;;5121016;28;20031;-60
2022/04/24 11:41:52;;;;;;;2.55;1.13;;;13.40;64.00;;;;;;5113906;28;20027;-60
2022/04/24 11:52:39;;;;;;;1.52;0.80;;;13.70;64.20;;;;;;5128446;27;20166;-59
2022/04/24 11:55:07;;;;;;;0.82;0.40;;;13.80;64.00;;;;;;5132228;27;20023;-60
2022/04/24 11:57:33;;;;;;;0.60;0.57;;;13.80;63.00;;;;;;5126369;27;20051;-60
2022/04/24 11:59:59;;;;;;;1.05;0.65;;;13.90;63.30;;;;;;5116189;27;20054;-60
2022/04/24 12:02:28;;;;;;;1.70;0.88;;;13.90;63.30;;;;;;5127099;27;20019;-59
2022/04/24 12:04:56;;;;;;;1.27;0.90;;;14.00;63.70;;;;;;5116359;27;20028;-59
2022/04/24 12:07:30;;;;;;;0.50;0.50;;;14.00;63.60;;;;;;5123544;27;20029;-60
2022/04/24 12:10:04;;;;;;;0.40;0.40;;;14.10;63.70;;;;;;5122539;27;20055;-60
2022/04/24 12:12:29;;;;;;;0.45;0.45;;;14.20;63.40;;;;;;5126885;27;20065;-59
2022/04/24 12:14:55;;;;;;;0.65;0.55;;;14.20;63.50;;;;;;5121340;27;20027;-59
2022/04/24 12:17:23;;;;;;;1.30;0.60;;;14.30;62.80;;;;;;5127490;27;20024;-59
2022/04/24 12:19:56;;;;;;;0.40;0.40;;;14.40;62.20;;;;;;5117640;27;20074;-60
2022/04/24 12:22:35;;;;;;;0.45;0.32;;;14.40;62.30;;;;;;5124532;27;20439;-60
2022/04/24 12:25:15;;;;;;;0.40;0.40;;;14.30;62.10;;;;;;5121261;27;20566;-59
2022/04/24 12:27:52;;;;;;;1.00;0.40;;;14.30;62.40;;;;;;5124821;27;20007;-60
2022/04/24 12:30:18;;;;;;;0.50;0.40;;;14.30;62.80;;;;;;5123282;27;20050;-61
2022/04/24 12:32:44;;;;;;;3.78;0.85;;;14.30;62.80;;;;;;5126588;27;20035;-61
2022/04/24 12:35:28;;;;;;;1.10;0.70;;;14.40;62.80;;;;;;5129706;27;20030;-60
2022/04/24 12:37:54;;;;;;;1.65;0.60;;;14.30;62.90;;;;;;5119768;27;20022;-60
2022/04/24 12:40:21;;;;;;;0.90;0.50;;;14.40;62.70;;;;;;5122399;27;20099;-60
2022/04/24 12:42:54;;;;;;;0.55;0.50;;;14.30;62.90;;;;;;5127157;27;20020;-59
2022/04/24 12:45:20;;;;;;;0.75;0.50;;;14.30;62.80;;;;;;5118727;27;20016;-60
2022/04/24 12:47:49;;;;;;;0.70;0.50;;;14.30;62.90;;;;;;5110843;27;20088;-59